FDX1330 KMKE-KMEM
Flight info
| Callsign | FDX1330 |
|---|---|
| Flight time | 1h 22m |
| Altitude | 34000 |
| Route | ACCRA5 ACCRA NMANN HYTHR3 |
| Aircraft | A306/H-SDE3FGHIRWY/LB1 |
Departure
| Time | 2026-04-14 13:25 |
|---|---|
| Airport | General Mitchell International Airport (KMKE) |
Arrival
| Time | 2026-04-14 14:47 |
|---|---|
| Airport | Memphis International Airport (KMEM) |
| Time | Latitude | Longitude | Altitude | Speed | Heading |
|---|---|---|---|---|---|
| 2026-04-14 12:50 | 42.94353 | -87.91163 | 685 ft | 0 kts | 342° |
| 2026-04-14 12:50 | 42.94358 | -87.91166 | 686 ft | 0 kts | 342° |
| 2026-04-14 12:50 | 42.94341 | -87.91236 | 687 ft | 0 kts | 342° |
| 2026-04-14 13:14 | 42.94327 | -87.91230 | 685 ft | 4 kts | 342° |
| 2026-04-14 13:15 | 42.94302 | -87.91219 | 690 ft | 4 kts | 346° |
| 2026-04-14 13:15 | 42.94281 | -87.91221 | 688 ft | 4 kts | 48° |
| 2026-04-14 13:15 | 42.94268 | -87.91250 | 687 ft | 2 kts | 71° |
| 2026-04-14 13:15 | 42.94267 | -87.91257 | 689 ft | 3 kts | 71° |
| 2026-04-14 13:16 | 42.94261 | -87.91281 | 689 ft | 0 kts | 71° |
| 2026-04-14 13:19 | 42.94261 | -87.91279 | 689 ft | 2 kts | 72° |
| 2026-04-14 13:19 | 42.94249 | -87.91199 | 687 ft | 11 kts | 139° |
| 2026-04-14 13:19 | 42.94183 | -87.91137 | 687 ft | 9 kts | 108° |
| 2026-04-14 13:20 | 42.94218 | -87.90984 | 686 ft | 25 kts | 69° |
| 2026-04-14 13:20 | 42.94291 | -87.90693 | 691 ft | 39 kts | 69° |
| 2026-04-14 13:20 | 42.94375 | -87.90339 | 686 ft | 39 kts | 72° |
| 2026-04-14 13:20 | 42.94456 | -87.90004 | 692 ft | 35 kts | 72° |
| 2026-04-14 13:21 | 42.94526 | -87.89735 | 689 ft | 21 kts | 71° |
| 2026-04-14 13:21 | 42.94590 | -87.89652 | 691 ft | 11 kts | 15° |
| 2026-04-14 13:21 | 42.94667 | -87.89640 | 690 ft | 11 kts | 5° |
| 2026-04-14 13:21 | 42.94744 | -87.89626 | 690 ft | 11 kts | 8° |
| 2026-04-14 13:22 | 42.94819 | -87.89613 | 690 ft | 11 kts | 7° |
| 2026-04-14 13:22 | 42.94893 | -87.89600 | 689 ft | 11 kts | 7° |
| 2026-04-14 13:22 | 42.95009 | -87.89580 | 690 ft | 29 kts | 6° |
| 2026-04-14 13:22 | 42.95214 | -87.89550 | 690 ft | 29 kts | 5° |
| 2026-04-14 13:23 | 42.95411 | -87.89520 | 691 ft | 28 kts | 8° |
| 2026-04-14 13:23 | 42.95598 | -87.89477 | 690 ft | 27 kts | 5° |
| 2026-04-14 13:23 | 42.95746 | -87.89418 | 686 ft | 16 kts | 67° |
| 2026-04-14 13:23 | 42.95727 | -87.89311 | 685 ft | 11 kts | 137° |
| 2026-04-14 13:24 | 42.95660 | -87.89300 | 688 ft | 10 kts | 191° |
| 2026-04-14 13:24 | 42.95439 | -87.89359 | 689 ft | 55 kts | 188° |
| 2026-04-14 13:24 | 42.94765 | -87.89475 | 691 ft | 136 kts | 186° |
| 2026-04-14 13:25 | 42.93571 | -87.89678 | 793 ft | 207 kts | 187° |
| 2026-04-14 13:25 | 42.92023 | -87.89972 | 1558 ft | 234 kts | 192° |
| 2026-04-14 13:26 | 42.88247 | -87.93709 | 3969 ft | 247 kts | 248° |
| 2026-04-14 13:26 | 42.87357 | -87.95741 | 5031 ft | 254 kts | 237° |
| 2026-04-14 13:26 | 42.86214 | -87.97583 | 6209 ft | 255 kts | 230° |
| 2026-04-14 13:26 | 42.84922 | -87.99256 | 7313 ft | 258 kts | 226° |
| 2026-04-14 13:27 | 42.83533 | -88.00834 | 8453 ft | 262 kts | 224° |
| 2026-04-14 13:27 | 42.82085 | -88.02358 | 9653 ft | 264 kts | 223° |
| 2026-04-14 13:27 | 42.80593 | -88.03866 | 10578 ft | 273 kts | 222° |
| 2026-04-14 13:27 | 42.78993 | -88.05457 | 11019 ft | 297 kts | 221° |
| 2026-04-14 13:28 | 42.77249 | -88.07163 | 11391 ft | 320 kts | 220° |
| 2026-04-14 13:28 | 42.75378 | -88.08974 | 11768 ft | 340 kts | 220° |
| 2026-04-14 13:28 | 42.73401 | -88.10872 | 12300 ft | 354 kts | 219° |
| 2026-04-14 13:28 | 42.71350 | -88.12791 | 12996 ft | 363 kts | 217° |
| 2026-04-14 13:29 | 42.69022 | -88.14251 | 13701 ft | 377 kts | 201° |
| 2026-04-14 13:29 | 42.66380 | -88.14726 | 14415 ft | 389 kts | 187° |
| 2026-04-14 13:29 | 42.63658 | -88.14740 | 15129 ft | 393 kts | 185° |
| 2026-04-14 13:29 | 42.60913 | -88.14697 | 15834 ft | 396 kts | 185° |
| 2026-04-14 13:30 | 42.58148 | -88.14660 | 16529 ft | 399 kts | 186° |
| 2026-04-14 13:30 | 42.55363 | -88.14628 | 17237 ft | 402 kts | 185° |
| 2026-04-14 13:30 | 42.52550 | -88.14536 | 17935 ft | 406 kts | 185° |
| 2026-04-14 13:30 | 42.49716 | -88.14417 | 18562 ft | 409 kts | 185° |
| 2026-04-14 13:31 | 42.46863 | -88.14296 | 19168 ft | 411 kts | 185° |
| 2026-04-14 13:31 | 42.43996 | -88.14177 | 19763 ft | 413 kts | 185° |
| 2026-04-14 13:31 | 42.41109 | -88.13929 | 20337 ft | 420 kts | 180° |
| 2026-04-14 13:31 | 42.38208 | -88.13261 | 20890 ft | 425 kts | 176° |
| 2026-04-14 13:32 | 42.35296 | -88.12477 | 21456 ft | 428 kts | 175° |
| 2026-04-14 13:32 | 42.32370 | -88.11680 | 22010 ft | 430 kts | 175° |
| 2026-04-14 13:32 | 42.29432 | -88.10898 | 22544 ft | 431 kts | 176° |
| 2026-04-14 13:32 | 42.26474 | -88.10145 | 23071 ft | 433 kts | 176° |
| 2026-04-14 13:33 | 42.23501 | -88.09395 | 23557 ft | 436 kts | 176° |
| 2026-04-14 13:33 | 42.20553 | -88.08655 | 23930 ft | 439 kts | 176° |
| 2026-04-14 13:33 | 42.17544 | -88.07900 | 24311 ft | 441 kts | 176° |
| 2026-04-14 13:33 | 42.14522 | -88.07143 | 24717 ft | 442 kts | 176° |
| 2026-04-14 13:34 | 42.08441 | -88.05620 | 25479 ft | 446 kts | 176° |
| 2026-04-14 13:34 | 42.05379 | -88.04859 | 25843 ft | 448 kts | 177° |
| 2026-04-14 13:34 | 42.02305 | -88.04113 | 26179 ft | 450 kts | 177° |
| 2026-04-14 13:35 | 41.99219 | -88.03369 | 26510 ft | 452 kts | 177° |
| 2026-04-14 13:35 | 41.96114 | -88.02705 | 26813 ft | 450 kts | 181° |
| 2026-04-14 13:35 | 41.93013 | -88.02546 | 27112 ft | 443 kts | 189° |
| 2026-04-14 13:35 | 41.89979 | -88.03054 | 27454 ft | 437 kts | 198° |
| 2026-04-14 13:36 | 41.87022 | -88.03966 | 27781 ft | 436 kts | 200° |
| 2026-04-14 13:36 | 41.84076 | -88.04952 | 28140 ft | 436 kts | 200° |
| 2026-04-14 13:36 | 41.81142 | -88.05935 | 28617 ft | 434 kts | 200° |
| 2026-04-14 13:36 | 41.78222 | -88.06906 | 29111 ft | 432 kts | 200° |
| 2026-04-14 13:37 | 41.75310 | -88.07870 | 29564 ft | 430 kts | 200° |
| 2026-04-14 13:37 | 41.72408 | -88.08826 | 29997 ft | 429 kts | 200° |
| 2026-04-14 13:37 | 41.69517 | -88.09776 | 30473 ft | 426 kts | 201° |
| 2026-04-14 13:37 | 41.66646 | -88.10718 | 30918 ft | 424 kts | 201° |
| 2026-04-14 13:38 | 41.63779 | -88.11657 | 31286 ft | 423 kts | 201° |
| 2026-04-14 13:38 | 41.60922 | -88.12592 | 31683 ft | 423 kts | 201° |
| 2026-04-14 13:38 | 41.58069 | -88.13525 | 32049 ft | 422 kts | 201° |
| 2026-04-14 13:38 | 41.55221 | -88.14455 | 32426 ft | 421 kts | 201° |
| 2026-04-14 13:39 | 41.52385 | -88.15380 | 32739 ft | 421 kts | 201° |
| 2026-04-14 13:39 | 41.49536 | -88.16309 | 33084 ft | 421 kts | 201° |
| 2026-04-14 13:39 | 41.46698 | -88.17233 | 33403 ft | 419 kts | 201° |
| 2026-04-14 13:39 | 41.43864 | -88.18154 | 33773 ft | 419 kts | 201° |
| 2026-04-14 13:40 | 41.41045 | -88.19068 | 33633 ft | 401 kts | 201° |
| 2026-04-14 13:40 | 41.38293 | -88.19957 | 33263 ft | 397 kts | 201° |
| 2026-04-14 13:40 | 41.35688 | -88.20752 | 33382 ft | 383 kts | 201° |
| 2026-04-14 13:40 | 41.33147 | -88.21552 | 33850 ft | 370 kts | 202° |
| 2026-04-14 13:41 | 41.30651 | -88.22381 | 34170 ft | 372 kts | 203° |
| 2026-04-14 13:41 | 41.28099 | -88.23247 | 33893 ft | 384 kts | 203° |
| 2026-04-14 13:41 | 41.25491 | -88.24139 | 33908 ft | 390 kts | 202° |
| 2026-04-14 13:42 | 41.20189 | -88.25843 | 33907 ft | 392 kts | 202° |
| 2026-04-14 13:42 | 41.14889 | -88.27540 | 33910 ft | 392 kts | 202° |
| 2026-04-14 13:43 | 41.09591 | -88.29242 | 33910 ft | 392 kts | 202° |
| 2026-04-14 13:43 | 41.04278 | -88.30949 | 33929 ft | 393 kts | 202° |
| 2026-04-14 13:44 | 40.98960 | -88.32655 | 33933 ft | 393 kts | 202° |
| 2026-04-14 13:44 | 40.93641 | -88.34358 | 33935 ft | 393 kts | 202° |
| 2026-04-14 13:45 | 40.88324 | -88.36059 | 33927 ft | 393 kts | 202° |
| 2026-04-14 13:45 | 40.83011 | -88.37755 | 33940 ft | 393 kts | 202° |
| 2026-04-14 13:46 | 40.77702 | -88.39447 | 33907 ft | 392 kts | 202° |
| 2026-04-14 13:46 | 40.72395 | -88.41136 | 33907 ft | 392 kts | 202° |
| 2026-04-14 13:47 | 40.67086 | -88.42823 | 33911 ft | 392 kts | 202° |
| 2026-04-14 13:47 | 40.61778 | -88.44507 | 33908 ft | 392 kts | 202° |
| 2026-04-14 13:48 | 40.56468 | -88.46188 | 33907 ft | 392 kts | 202° |
| 2026-04-14 13:48 | 40.51195 | -88.47856 | 33910 ft | 392 kts | 202° |
| 2026-04-14 13:49 | 40.45909 | -88.49523 | 33877 ft | 390 kts | 201° |
| 2026-04-14 13:49 | 40.40621 | -88.51190 | 33917 ft | 392 kts | 201° |
| 2026-04-14 13:50 | 40.35317 | -88.52859 | 33924 ft | 392 kts | 201° |
| 2026-04-14 13:50 | 40.30015 | -88.54523 | 33922 ft | 392 kts | 201° |
| 2026-04-14 13:51 | 40.24708 | -88.56188 | 33922 ft | 392 kts | 201° |
| 2026-04-14 13:51 | 40.19378 | -88.57859 | 33923 ft | 396 kts | 201° |
| 2026-04-14 13:52 | 40.13999 | -88.59540 | 33919 ft | 398 kts | 201° |
| 2026-04-14 13:52 | 40.08615 | -88.61219 | 33926 ft | 398 kts | 201° |
| 2026-04-14 13:53 | 40.03233 | -88.62895 | 33944 ft | 398 kts | 201° |
| 2026-04-14 13:53 | 39.97834 | -88.64576 | 33961 ft | 401 kts | 201° |
| 2026-04-14 13:54 | 39.92387 | -88.66268 | 33972 ft | 403 kts | 201° |
| 2026-04-14 13:54 | 39.86935 | -88.67957 | 33979 ft | 403 kts | 201° |
| 2026-04-14 13:55 | 39.81482 | -88.69644 | 33983 ft | 403 kts | 201° |
| 2026-04-14 13:55 | 39.76033 | -88.71328 | 33981 ft | 402 kts | 201° |
| 2026-04-14 13:56 | 39.70592 | -88.73006 | 33978 ft | 402 kts | 201° |
| 2026-04-14 13:56 | 39.65153 | -88.74682 | 33977 ft | 402 kts | 201° |
| 2026-04-14 13:57 | 39.59753 | -88.76343 | 33964 ft | 401 kts | 201° |
| 2026-04-14 13:57 | 39.54315 | -88.78013 | 33964 ft | 402 kts | 202° |
| 2026-04-14 13:58 | 39.48862 | -88.79685 | 33959 ft | 403 kts | 202° |
| 2026-04-14 13:58 | 39.43407 | -88.81354 | 33964 ft | 403 kts | 202° |
| 2026-04-14 13:59 | 39.37949 | -88.83022 | 33969 ft | 403 kts | 202° |
| 2026-04-14 13:59 | 39.32490 | -88.84687 | 33961 ft | 403 kts | 202° |
| 2026-04-14 14:00 | 39.27029 | -88.86348 | 33977 ft | 402 kts | 202° |
| 2026-04-14 14:00 | 39.21598 | -88.87999 | 33979 ft | 400 kts | 202° |
| 2026-04-14 14:01 | 39.16184 | -88.89644 | 33981 ft | 400 kts | 202° |
| 2026-04-14 14:01 | 39.11682 | -88.91010 | 33967 ft | 400 kts | 202° |
| 2026-04-14 14:02 | 39.06259 | -88.92652 | 33984 ft | 400 kts | 201° |
| 2026-04-14 14:02 | 39.00835 | -88.94292 | 33990 ft | 400 kts | 202° |
| 2026-04-14 14:03 | 38.95410 | -88.95929 | 33987 ft | 400 kts | 201° |
| 2026-04-14 14:03 | 38.89985 | -88.97564 | 33999 ft | 400 kts | 201° |
| 2026-04-14 14:04 | 38.84556 | -88.99197 | 33997 ft | 401 kts | 201° |
| 2026-04-14 14:04 | 38.79110 | -89.00833 | 34003 ft | 402 kts | 201° |
| 2026-04-14 14:05 | 38.73662 | -89.02467 | 34011 ft | 402 kts | 201° |
| 2026-04-14 14:05 | 38.68216 | -89.04098 | 34010 ft | 402 kts | 201° |
| 2026-04-14 14:06 | 38.62765 | -89.05727 | 34019 ft | 403 kts | 201° |
| 2026-04-14 14:06 | 38.57303 | -89.07358 | 34027 ft | 403 kts | 201° |
| 2026-04-14 14:07 | 38.51835 | -89.08986 | 34026 ft | 404 kts | 201° |
| 2026-04-14 14:07 | 38.46364 | -89.10614 | 34025 ft | 404 kts | 201° |
| 2026-04-14 14:08 | 38.40929 | -89.12229 | 34025 ft | 404 kts | 201° |
| 2026-04-14 14:08 | 38.35460 | -89.13851 | 34026 ft | 403 kts | 201° |
| 2026-04-14 14:09 | 38.29991 | -89.15471 | 34024 ft | 403 kts | 201° |
| 2026-04-14 14:09 | 38.24524 | -89.17088 | 34022 ft | 403 kts | 201° |
| 2026-04-14 14:10 | 38.19054 | -89.18703 | 34026 ft | 403 kts | 201° |
| 2026-04-14 14:10 | 38.13584 | -89.20316 | 34024 ft | 404 kts | 201° |
| 2026-04-14 14:11 | 38.08107 | -89.21929 | 34024 ft | 404 kts | 201° |
| 2026-04-14 14:11 | 38.02630 | -89.23538 | 34026 ft | 404 kts | 201° |
| 2026-04-14 14:12 | 37.97163 | -89.25141 | 34015 ft | 402 kts | 200° |
| 2026-04-14 14:12 | 37.91712 | -89.26739 | 34046 ft | 403 kts | 200° |
| 2026-04-14 14:13 | 37.86244 | -89.28340 | 34052 ft | 403 kts | 200° |
| 2026-04-14 14:13 | 37.80772 | -89.29938 | 34056 ft | 404 kts | 200° |
| 2026-04-14 14:14 | 37.75299 | -89.31535 | 34057 ft | 404 kts | 200° |
| 2026-04-14 14:14 | 37.69828 | -89.33128 | 34040 ft | 404 kts | 200° |
| 2026-04-14 14:15 | 37.64334 | -89.34727 | 34051 ft | 406 kts | 200° |
| 2026-04-14 14:15 | 37.58828 | -89.36325 | 34052 ft | 406 kts | 200° |
| 2026-04-14 14:16 | 37.53320 | -89.37921 | 34045 ft | 406 kts | 200° |
| 2026-04-14 14:16 | 37.47803 | -89.39467 | 34046 ft | 407 kts | 199° |
| 2026-04-14 14:17 | 37.39443 | -89.41529 | 34049 ft | 409 kts | 198° |
| 2026-04-14 14:17 | 37.33861 | -89.42899 | 34049 ft | 409 kts | 198° |
| 2026-04-14 14:18 | 37.28314 | -89.44261 | 34054 ft | 409 kts | 198° |
| 2026-04-14 14:18 | 37.22733 | -89.45631 | 34048 ft | 409 kts | 198° |
| 2026-04-14 14:19 | 37.17138 | -89.47003 | 34073 ft | 413 kts | 198° |
| 2026-04-14 14:19 | 37.11381 | -89.48419 | 34073 ft | 430 kts | 198° |
| 2026-04-14 14:20 | 37.05436 | -89.49871 | 34079 ft | 438 kts | 197° |
| 2026-04-14 14:20 | 36.99458 | -89.51323 | 34079 ft | 438 kts | 197° |
| 2026-04-14 14:21 | 36.93501 | -89.52764 | 33413 ft | 433 kts | 197° |
| 2026-04-14 14:21 | 36.90551 | -89.53478 | 32763 ft | 427 kts | 197° |
| 2026-04-14 14:21 | 36.87662 | -89.54179 | 32323 ft | 419 kts | 197° |
| 2026-04-14 14:22 | 36.84807 | -89.54873 | 32024 ft | 416 kts | 197° |
| 2026-04-14 14:22 | 36.82005 | -89.55551 | 31518 ft | 405 kts | 197° |
| 2026-04-14 14:22 | 36.79208 | -89.56235 | 30596 ft | 410 kts | 197° |
| 2026-04-14 14:22 | 36.76406 | -89.56920 | 28359 ft | 430 kts | 197° |
| 2026-04-14 14:23 | 36.73377 | -89.57669 | 26544 ft | 451 kts | 196° |
| 2026-04-14 14:23 | 36.70294 | -89.58415 | 24685 ft | 462 kts | 195° |
| 2026-04-14 14:23 | 36.67194 | -89.59160 | 22718 ft | 457 kts | 195° |
| 2026-04-14 14:23 | 36.64035 | -89.59926 | 22778 ft | 466 kts | 195° |
| 2026-04-14 14:24 | 36.60836 | -89.60694 | 23083 ft | 472 kts | 195° |
| 2026-04-14 14:24 | 36.57619 | -89.61491 | 23117 ft | 483 kts | 195° |
| 2026-04-14 14:24 | 36.54313 | -89.62287 | 22721 ft | 484 kts | 195° |
| 2026-04-14 14:24 | 36.51041 | -89.63096 | 22283 ft | 457 kts | 195° |
| 2026-04-14 14:25 | 36.48045 | -89.63821 | 21551 ft | 420 kts | 195° |
| 2026-04-14 14:25 | 36.45268 | -89.64501 | 20951 ft | 392 kts | 195° |
| 2026-04-14 14:25 | 36.42697 | -89.65125 | 20607 ft | 367 kts | 195° |
| 2026-04-14 14:25 | 36.40226 | -89.65741 | 20292 ft | 355 kts | 195° |
| 2026-04-14 14:26 | 36.37792 | -89.66334 | 19165 ft | 366 kts | 196° |
| 2026-04-14 14:26 | 36.35254 | -89.66987 | 18270 ft | 373 kts | 195° |
| 2026-04-14 14:26 | 36.32737 | -89.67649 | 17626 ft | 368 kts | 196° |
| 2026-04-14 14:26 | 36.30252 | -89.68314 | 17042 ft | 363 kts | 196° |
| 2026-04-14 14:27 | 36.27782 | -89.68914 | 16532 ft | 361 kts | 193° |
| 2026-04-14 14:27 | 36.25302 | -89.69381 | 16454 ft | 362 kts | 192° |
| 2026-04-14 14:27 | 36.22836 | -89.69927 | 16382 ft | 360 kts | 195° |
| 2026-04-14 14:27 | 36.20391 | -89.70572 | 15783 ft | 360 kts | 195° |
| 2026-04-14 14:28 | 36.17947 | -89.71217 | 15042 ft | 349 kts | 195° |
| 2026-04-14 14:28 | 36.15421 | -89.71830 | 13343 ft | 382 kts | 194° |
| 2026-04-14 14:28 | 36.12870 | -89.72408 | 12735 ft | 369 kts | 193° |
| 2026-04-14 14:28 | 36.10350 | -89.73048 | 11638 ft | 373 kts | 195° |
| 2026-04-14 14:29 | 36.07870 | -89.73699 | 11297 ft | 355 kts | 194° |
| 2026-04-14 14:29 | 36.05473 | -89.74321 | 10647 ft | 349 kts | 194° |
| 2026-04-14 14:29 | 36.03140 | -89.74887 | 10383 ft | 332 kts | 193° |
| 2026-04-14 14:29 | 36.00917 | -89.75402 | 10056 ft | 319 kts | 193° |
| 2026-04-14 14:30 | 35.98828 | -89.75880 | 10043 ft | 298 kts | 192° |
| 2026-04-14 14:30 | 35.96822 | -89.76298 | 9727 ft | 288 kts | 192° |
| 2026-04-14 14:30 | 35.94852 | -89.76724 | 9241 ft | 287 kts | 193° |
| 2026-04-14 14:30 | 35.92896 | -89.77122 | 9479 ft | 283 kts | 193° |
| 2026-04-14 14:31 | 35.90998 | -89.77577 | 9714 ft | 281 kts | 194° |
| 2026-04-14 14:31 | 35.89066 | -89.77995 | 9688 ft | 283 kts | 193° |
| 2026-04-14 14:31 | 35.87118 | -89.78346 | 10239 ft | 284 kts | 191° |
| 2026-04-14 14:31 | 35.85141 | -89.78641 | 10747 ft | 291 kts | 191° |
| 2026-04-14 14:32 | 35.83158 | -89.79117 | 10506 ft | 290 kts | 195° |
| 2026-04-14 14:32 | 35.81197 | -89.79647 | 10268 ft | 288 kts | 195° |
| 2026-04-14 14:32 | 35.79243 | -89.80148 | 10067 ft | 286 kts | 194° |
| 2026-04-14 14:32 | 35.77290 | -89.80623 | 10018 ft | 287 kts | 193° |
| 2026-04-14 14:33 | 35.75334 | -89.81081 | 9967 ft | 286 kts | 194° |
| 2026-04-14 14:33 | 35.73379 | -89.81533 | 9660 ft | 286 kts | 195° |
| 2026-04-14 14:33 | 35.71428 | -89.81997 | 9399 ft | 286 kts | 194° |
| 2026-04-14 14:33 | 35.69484 | -89.82452 | 9164 ft | 283 kts | 194° |
| 2026-04-14 14:34 | 35.65649 | -89.83354 | 8576 ft | 280 kts | 193° |
| 2026-04-14 14:34 | 35.63748 | -89.83801 | 8161 ft | 277 kts | 194° |
| 2026-04-14 14:34 | 35.61867 | -89.84242 | 7748 ft | 273 kts | 194° |
| 2026-04-14 14:35 | 35.60010 | -89.84679 | 7328 ft | 270 kts | 194° |
| 2026-04-14 14:35 | 35.58172 | -89.85116 | 6934 ft | 268 kts | 194° |
| 2026-04-14 14:35 | 35.56347 | -89.85551 | 6526 ft | 267 kts | 193° |
| 2026-04-14 14:35 | 35.54535 | -89.85976 | 6106 ft | 263 kts | 194° |
| 2026-04-14 14:36 | 35.52784 | -89.86558 | 5642 ft | 260 kts | 200° |
| 2026-04-14 14:36 | 35.51056 | -89.87243 | 4944 ft | 266 kts | 201° |
| 2026-04-14 14:36 | 35.49316 | -89.87944 | 4601 ft | 259 kts | 200° |
| 2026-04-14 14:36 | 35.47651 | -89.88613 | 4399 ft | 246 kts | 201° |
| 2026-04-14 14:37 | 35.46054 | -89.89263 | 4155 ft | 241 kts | 201° |
| 2026-04-14 14:37 | 35.44457 | -89.89914 | 3807 ft | 241 kts | 202° |
| 2026-04-14 14:37 | 35.42869 | -89.90549 | 3432 ft | 239 kts | 201° |
| 2026-04-14 14:37 | 35.41305 | -89.91182 | 3112 ft | 234 kts | 202° |
| 2026-04-14 14:38 | 35.39785 | -89.91786 | 2900 ft | 232 kts | 202° |
| 2026-04-14 14:38 | 35.38247 | -89.92399 | 2850 ft | 233 kts | 202° |
| 2026-04-14 14:38 | 35.36708 | -89.93026 | 3012 ft | 234 kts | 202° |
| 2026-04-14 14:38 | 35.35160 | -89.93655 | 3037 ft | 234 kts | 202° |
| 2026-04-14 14:39 | 35.33614 | -89.94273 | 3046 ft | 232 kts | 202° |
| 2026-04-14 14:39 | 35.32079 | -89.94891 | 3052 ft | 234 kts | 201° |
| 2026-04-14 14:39 | 35.30529 | -89.95512 | 3024 ft | 235 kts | 201° |
| 2026-04-14 14:39 | 35.28972 | -89.96134 | 3035 ft | 234 kts | 202° |
| 2026-04-14 14:40 | 35.27474 | -89.96726 | 2680 ft | 217 kts | 202° |
| 2026-04-14 14:40 | 35.26112 | -89.97260 | 2569 ft | 192 kts | 203° |
| 2026-04-14 14:40 | 35.24923 | -89.97694 | 2691 ft | 163 kts | 199° |
| 2026-04-14 14:40 | 35.23925 | -89.97901 | 2898 ft | 127 kts | 194° |
| 2026-04-14 14:41 | 35.23116 | -89.97960 | 2881 ft | 111 kts | 192° |
| 2026-04-14 14:41 | 35.22368 | -89.97973 | 2918 ft | 107 kts | 191° |
| 2026-04-14 14:41 | 35.21623 | -89.97956 | 3026 ft | 106 kts | 189° |
| 2026-04-14 14:41 | 35.20886 | -89.97934 | 3024 ft | 106 kts | 190° |
| 2026-04-14 14:42 | 35.20152 | -89.97920 | 3019 ft | 106 kts | 190° |
| 2026-04-14 14:42 | 35.19415 | -89.97911 | 3027 ft | 106 kts | 190° |
| 2026-04-14 14:42 | 35.18675 | -89.97902 | 2822 ft | 106 kts | 190° |
| 2026-04-14 14:42 | 35.17934 | -89.97885 | 2671 ft | 106 kts | 190° |
| 2026-04-14 14:43 | 35.17207 | -89.97866 | 2506 ft | 104 kts | 190° |
| 2026-04-14 14:43 | 35.16472 | -89.97852 | 2371 ft | 107 kts | 189° |
| 2026-04-14 14:43 | 35.15724 | -89.97838 | 2248 ft | 108 kts | 188° |
| 2026-04-14 14:43 | 35.14977 | -89.97808 | 2090 ft | 107 kts | 187° |
| 2026-04-14 14:44 | 35.14233 | -89.97798 | 2018 ft | 109 kts | 188° |
| 2026-04-14 14:44 | 35.13466 | -89.97782 | 1769 ft | 109 kts | 187° |
| 2026-04-14 14:44 | 35.12688 | -89.97760 | 1708 ft | 119 kts | 186° |
| 2026-04-14 14:44 | 35.11820 | -89.97749 | 1554 ft | 128 kts | 187° |
| 2026-04-14 14:45 | 35.10919 | -89.97725 | 1352 ft | 131 kts | 184° |
| 2026-04-14 14:45 | 35.10010 | -89.97691 | 1154 ft | 126 kts | 184° |
| 2026-04-14 14:45 | 35.09136 | -89.97710 | 1126 ft | 128 kts | 185° |
| 2026-04-14 14:45 | 35.08251 | -89.97660 | 936 ft | 126 kts | 184° |
| 2026-04-14 14:46 | 35.07394 | -89.97628 | 683 ft | 119 kts | 184° |
| 2026-04-14 14:46 | 35.06574 | -89.97629 | 575 ft | 117 kts | 181° |
| 2026-04-14 14:46 | 35.05777 | -89.97614 | 423 ft | 112 kts | 184° |
| 2026-04-14 14:46 | 35.05039 | -89.97606 | 326 ft | 95 kts | 178° |
| 2026-04-14 14:47 | 35.04493 | -89.97598 | 329 ft | 63 kts | 179° |
| 2026-04-14 14:47 | 35.04097 | -89.97588 | 330 ft | 52 kts | 179° |
| 2026-04-14 14:47 | 35.03824 | -89.97692 | 328 ft | 24 kts | 218° |
| 2026-04-14 14:47 | 35.03671 | -89.97734 | 332 ft | 23 kts | 178° |
| 2026-04-14 14:48 | 35.03461 | -89.97728 | 332 ft | 38 kts | 177° |
| 2026-04-14 14:48 | 35.03222 | -89.97693 | 330 ft | 21 kts | 136° |
| 2026-04-14 14:48 | 35.03345 | -89.97581 | 326 ft | 44 kts | 360° |
| 2026-04-14 14:48 | 35.03694 | -89.97588 | 327 ft | 49 kts | 358° |
| 2026-04-14 14:49 | 35.04034 | -89.97615 | 327 ft | 50 kts | 343° |
| 2026-04-14 14:49 | 35.04257 | -89.97743 | 333 ft | 29 kts | 357° |
| 2026-04-14 14:49 | 35.04498 | -89.97751 | 331 ft | 41 kts | 358° |
| 2026-04-14 14:49 | 35.04818 | -89.97758 | 331 ft | 51 kts | 359° |
| 2026-04-14 14:50 | 35.05180 | -89.97764 | 331 ft | 51 kts | 359° |
| 2026-04-14 14:50 | 35.05529 | -89.97783 | 333 ft | 49 kts | 360° |
| 2026-04-14 14:50 | 35.05861 | -89.97785 | 336 ft | 46 kts | 360° |
| 2026-04-14 14:50 | 35.06145 | -89.97786 | 334 ft | 31 kts | 359° |
| 2026-04-14 14:51 | 35.06332 | -89.97805 | 333 ft | 18 kts | 327° |
| 2026-04-14 14:51 | 35.06328 | -89.97894 | 331 ft | 7 kts | 204° |
| 2026-04-14 14:51 | 35.06316 | -89.97893 | 332 ft | 2 kts | 171° |
| 2026-04-14 14:51 | 35.06293 | -89.97891 | 333 ft | 3 kts | 184° |
| 2026-04-14 14:52 | 35.06281 | -89.97891 | 334 ft | 1 kts | 182° |
| 2026-04-14 14:52 | 35.06282 | -89.97891 | 334 ft | 0 kts | 182° |